sensor_id;sensor_type;location;lat;lon;timestamp;temperature;humidity
32400;DHT22;45045;45.440;9.178;2022-12-15T00:01:03;5.80;99.90
32400;DHT22;45045;45.440;9.178;2022-12-15T00:03:48;5.70;99.90
32400;DHT22;45045;45.440;9.178;2022-12-15T00:06:32;5.70;99.90
32400;DHT22;45045;45.440;9.178;2022-12-15T00:09:16;5.70;99.90
32400;DHT22;45045;45.440;9.178;2022-12-15T00:12:01;5.70;99.90
32400;DHT22;45045;45.440;9.178;2022-12-15T00:14:45;5.70;99.90
32400;DHT22;45045;45.440;9.178;2022-12-15T00:17:29;5.80;99.90
32400;DHT22;45045;45.440;9.178;2022-12-15T00:20:14;5.80;99.90
32400;DHT22;45045;45.440;9.178;2022-12-15T00:23:05;5.90;99.90
32400;DHT22;45045;45.440;9.178;2022-12-15T00:25:50;6.00;99.90
32400;DHT22;45045;45.440;9.178;2022-12-15T00:28:34;5.90;99.90
32400;DHT22;45045;45.440;9.178;2022-12-15T00:31:18;5.90;99.90
32400;DHT22;45045;45.440;9.178;2022-12-15T00:34:02;5.80;99.90
32400;DHT22;45045;45.440;9.178;2022-12-15T00:36:46;5.90;99.90
32400;DHT22;45045;45.440;9.178;2022-12-15T00:39:30;5.90;99.90
32400;DHT22;45045;45.440;9.178;2022-12-15T00:41:56;5.90;99.90
32400;DHT22;45045;45.440;9.178;2022-12-15T00:44:21;5.90;99.90
32400;DHT22;45045;45.440;9.178;2022-12-15T00:46:47;5.80;99.90
32400;DHT22;45045;45.440;9.178;2022-12-15T00:49:27;5.80;99.90
32400;DHT22;45045;45.440;9.178;2022-12-15T00:52:12;5.80;99.90
32400;DHT22;45045;45.440;9.178;2022-12-15T00:54:57;5.80;99.90
32400;DHT22;45045;45.440;9.178;2022-12-15T00:57:41;5.70;99.90
32400;DHT22;45045;45.440;9.178;2022-12-15T01:00:26;5.70;99.90
32400;DHT22;45045;45.440;9.178;2022-12-15T01:03:11;5.50;99.90
32400;DHT22;45045;45.440;9.178;2022-12-15T01:05:55;5.40;99.90
32400;DHT22;45045;45.440;9.178;2022-12-15T01:08:39;5.30;99.90
32400;DHT22;45045;45.440;9.178;2022-12-15T01:11:24;5.20;99.90
32400;DHT22;45045;45.440;9.178;2022-12-15T01:14:08;5.20;99.90
32400;DHT22;45045;45.440;9.178;2022-12-15T01:16:52;5.20;99.90
32400;DHT22;45045;45.440;9.178;2022-12-15T01:19:36;5.10;99.90
32400;DHT22;45045;45.440;9.178;2022-12-15T01:22:20;5.10;99.90
32400;DHT22;45045;45.440;9.178;2022-12-15T01:24:46;5.10;99.90
32400;DHT22;45045;45.440;9.178;2022-12-15T01:27:12;5.20;99.90
32400;DHT22;45045;45.440;9.178;2022-12-15T01:29:38;5.30;99.90
32400;DHT22;45045;45.440;9.178;2022-12-15T01:32:03;5.30;99.90
32400;DHT22;45045;45.440;9.178;2022-12-15T01:34:29;5.40;99.90
32400;DHT22;45045;45.440;9.178;2022-12-15T01:36:55;5.40;99.90
32400;DHT22;45045;45.440;9.178;2022-12-15T01:39:20;5.40;99.90
32400;DHT22;45045;45.440;9.178;2022-12-15T01:41:46;5.50;99.90
32400;DHT22;45045;45.440;9.178;2022-12-15T01:44:17;5.40;99.90
32400;DHT22;45045;45.440;9.178;2022-12-15T01:46:43;5.50;99.90
32400;DHT22;45045;45.440;9.178;2022-12-15T01:49:14;5.50;99.90
32400;DHT22;45045;45.440;9.178;2022-12-15T01:51:45;5.60;99.90
32400;DHT22;45045;45.440;9.178;2022-12-15T01:54:22;5.60;99.90
32400;DHT22;45045;45.440;9.178;2022-12-15T01:56:56;5.70;99.90
32400;DHT22;45045;45.440;9.178;2022-12-15T01:59:28;5.70;99.90
32400;DHT22;45045;45.440;9.178;2022-12-15T02:01:55;5.70;99.90
32400;DHT22;45045;45.440;9.178;2022-12-15T02:04:21;5.70;99.90
32400;DHT22;45045;45.440;9.178;2022-12-15T02:06:47;5.70;99.90
32400;DHT22;45045;45.440;9.178;2022-12-15T02:09:14;5.80;99.90
32400;DHT22;45045;45.440;9.178;2022-12-15T02:17:15;5.80;99.90
32400;DHT22;45045;45.440;9.178;2022-12-15T02:25:43;5.90;99.90
32400;DHT22;45045;45.440;9.178;2022-12-15T02:31:08;5.80;99.90
32400;DHT22;45045;45.440;9.178;2022-12-15T02:34:02;5.70;99.90
32400;DHT22;45045;45.440;9.178;2022-12-15T02:36:36;5.80;99.90
32400;DHT22;45045;45.440;9.178;2022-12-15T02:39:03;5.70;99.90
32400;DHT22;45045;45.440;9.178;2022-12-15T02:41:44;5.70;99.90
32400;DHT22;45045;45.440;9.178;2022-12-15T02:50:14;5.70;99.90
32400;DHT22;45045;45.440;9.178;2022-12-15T02:55:14;5.80;99.90
32400;DHT22;45045;45.440;9.178;2022-12-15T03:00:17;5.80;99.90
32400;DHT22;45045;45.440;9.178;2022-12-15T03:02:46;5.80;99.90
32400;DHT22;45045;45.440;9.178;2022-12-15T03:05:13;5.80;99.90
32400;DHT22;45045;45.440;9.178;2022-12-15T03:07:39;5.90;99.90
32400;DHT22;45045;45.440;9.178;2022-12-15T03:10:08;5.90;99.90
32400;DHT22;45045;45.440;9.178;2022-12-15T03:12:34;5.90;99.90
32400;DHT22;45045;45.440;9.178;2022-12-15T03:15:00;5.90;99.90
32400;DHT22;45045;45.440;9.178;2022-12-15T03:17:25;5.90;99.90
32400;DHT22;45045;45.440;9.178;2022-12-15T03:19:51;5.90;99.90
32400;DHT22;45045;45.440;9.178;2022-12-15T03:22:17;5.90;99.90
32400;DHT22;45045;45.440;9.178;2022-12-15T03:24:42;5.90;99.90
32400;DHT22;45045;45.440;9.178;2022-12-15T03:27:08;5.90;99.90
32400;DHT22;45045;45.440;9.178;2022-12-15T03:29:33;5.90;99.90
32400;DHT22;45045;45.440;9.178;2022-12-15T03:31:59;5.90;99.90
32400;DHT22;45045;45.440;9.178;2022-12-15T03:34:24;5.90;99.90
32400;DHT22;45045;45.440;9.178;2022-12-15T03:36:50;6.00;99.90
32400;DHT22;45045;45.440;9.178;2022-12-15T03:39:16;6.00;99.90
32400;DHT22;45045;45.440;9.178;2022-12-15T03:41:41;6.00;99.90
32400;DHT22;45045;45.440;9.178;2022-12-15T03:44:07;6.10;99.90
32400;DHT22;45045;45.440;9.178;2022-12-15T03:46:33;6.10;99.90
32400;DHT22;45045;45.440;9.178;2022-12-15T03:48:59;6.10;99.90
32400;DHT22;45045;45.440;9.178;2022-12-15T03:51:24;6.10;99.90
32400;DHT22;45045;45.440;9.178;2022-12-15T03:53:50;6.10;99.90
32400;DHT22;45045;45.440;9.178;2022-12-15T03:56:16;6.10;99.90
32400;DHT22;45045;45.440;9.178;2022-12-15T03:58:42;6.10;99.90
32400;DHT22;45045;45.440;9.178;2022-12-15T04:01:18;6.10;99.90
32400;DHT22;45045;45.440;9.178;2022-12-15T04:03:46;6.10;99.90
32400;DHT22;45045;45.440;9.178;2022-12-15T04:06:12;6.10;99.90
32400;DHT22;45045;45.440;9.178;2022-12-15T04:08:37;6.20;99.90
32400;DHT22;45045;45.440;9.178;2022-12-15T04:11:03;6.30;99.90
32400;DHT22;45045;45.440;9.178;2022-12-15T04:13:29;6.30;99.90
32400;DHT22;45045;45.440;9.178;2022-12-15T04:15:54;6.40;99.90
32400;DHT22;45045;45.440;9.178;2022-12-15T04:18:20;6.40;99.90
32400;DHT22;45045;45.440;9.178;2022-12-15T04:20:45;6.40;99.90
32400;DHT22;45045;45.440;9.178;2022-12-15T04:23:11;6.40;99.90
32400;DHT22;45045;45.440;9.178;2022-12-15T04:25:37;6.50;99.90
32400;DHT22;45045;45.440;9.178;2022-12-15T04:28:21;6.50;99.90
32400;DHT22;45045;45.440;9.178;2022-12-15T04:31:11;6.40;99.90
32400;DHT22;45045;45.440;9.178;2022-12-15T04:34:00;6.40;99.90
32400;DHT22;45045;45.440;9.178;2022-12-15T04:36:45;6.50;99.90
32400;DHT22;45045;45.440;9.178;2022-12-15T04:39:31;6.60;99.90
32400;DHT22;45045;45.440;9.178;2022-12-15T04:42:17;6.60;99.90
32400;DHT22;45045;45.440;9.178;2022-12-15T04:45:03;6.70;99.90
32400;DHT22;45045;45.440;9.178;2022-12-15T04:47:48;6.70;99.90
32400;DHT22;45045;45.440;9.178;2022-12-15T04:50:32;6.70;99.90
32400;DHT22;45045;45.440;9.178;2022-12-15T04:53:17;6.70;99.90
32400;DHT22;45045;45.440;9.178;2022-12-15T04:56:02;6.70;99.90
32400;DHT22;45045;45.440;9.178;2022-12-15T04:58:47;6.70;99.90
32400;DHT22;45045;45.440;9.178;2022-12-15T05:01:33;6.70;99.90
32400;DHT22;45045;45.440;9.178;2022-12-15T05:04:18;6.70;99.90
32400;DHT22;45045;45.440;9.178;2022-12-15T05:07:02;6.50;99.90
32400;DHT22;45045;45.440;9.178;2022-12-15T05:09:47;6.50;99.90
32400;DHT22;45045;45.440;9.178;2022-12-15T05:12:31;6.50;99.90
32400;DHT22;45045;45.440;9.178;2022-12-15T05:15:15;6.60;99.90
32400;DHT22;45045;45.440;9.178;2022-12-15T05:17:59;6.60;99.90
32400;DHT22;45045;45.440;9.178;2022-12-15T05:20:43;6.60;99.90
32400;DHT22;45045;45.440;9.178;2022-12-15T05:23:27;6.60;99.90
32400;DHT22;45045;45.440;9.178;2022-12-15T05:26:11;6.60;99.90
32400;DHT22;45045;45.440;9.178;2022-12-15T05:28:55;6.60;99.90
32400;DHT22;45045;45.440;9.178;2022-12-15T05:31:40;6.60;99.90
32400;DHT22;45045;45.440;9.178;2022-12-15T05:34:32;6.70;99.90
32400;DHT22;45045;45.440;9.178;2022-12-15T05:36:59;6.70;99.90
32400;DHT22;45045;45.440;9.178;2022-12-15T05:39:26;6.60;99.90
32400;DHT22;45045;45.440;9.178;2022-12-15T05:41:52;6.70;99.90
32400;DHT22;45045;45.440;9.178;2022-12-15T05:44:18;6.70;99.90
32400;DHT22;45045;45.440;9.178;2022-12-15T05:46:44;6.70;99.90
32400;DHT22;45045;45.440;9.178;2022-12-15T05:49:13;6.70;99.90
32400;DHT22;45045;45.440;9.178;2022-12-15T05:51:42;6.60;99.90
32400;DHT22;45045;45.440;9.178;2022-12-15T05:54:08;6.70;99.90
32400;DHT22;45045;45.440;9.178;2022-12-15T05:56:35;6.70;99.90
32400;DHT22;45045;45.440;9.178;2022-12-15T05:59:00;6.70;99.90
32400;DHT22;45045;45.440;9.178;2022-12-15T06:01:28;6.60;99.90
32400;DHT22;45045;45.440;9.178;2022-12-15T06:03:55;6.60;99.90
32400;DHT22;45045;45.440;9.178;2022-12-15T06:06:20;6.60;99.90
32400;DHT22;45045;45.440;9.178;2022-12-15T06:08:46;6.60;99.90
32400;DHT22;45045;45.440;9.178;2022-12-15T06:11:13;6.60;99.90
32400;DHT22;45045;45.440;9.178;2022-12-15T06:13:39;6.60;99.90
32400;DHT22;45045;45.440;9.178;2022-12-15T06:16:16;6.60;99.90
32400;DHT22;45045;45.440;9.178;2022-12-15T06:18:46;6.60;99.90
32400;DHT22;45045;45.440;9.178;2022-12-15T06:21:16;6.50;99.90
32400;DHT22;45045;45.440;9.178;2022-12-15T06:23:43;6.50;99.90
32400;DHT22;45045;45.440;9.178;2022-12-15T06:26:23;6.60;99.90
32400;DHT22;45045;45.440;9.178;2022-12-15T06:28:50;6.50;99.90
32400;DHT22;45045;45.440;9.178;2022-12-15T06:31:18;6.40;99.90
32400;DHT22;45045;45.440;9.178;2022-12-15T06:33:47;6.40;99.90
32400;DHT22;45045;45.440;9.178;2022-12-15T06:36:15;6.40;99.90
32400;DHT22;45045;45.440;9.178;2022-12-15T06:38:41;6.40;99.90
32400;DHT22;45045;45.440;9.178;2022-12-15T06:41:15;6.30;99.90
32400;DHT22;45045;45.440;9.178;2022-12-15T06:43:41;6.30;99.90
32400;DHT22;45045;45.440;9.178;2022-12-15T06:46:07;6.40;99.90
32400;DHT22;45045;45.440;9.178;2022-12-15T06:48:33;6.40;99.90
32400;DHT22;45045;45.440;9.178;2022-12-15T06:51:03;6.30;99.90
32400;DHT22;45045;45.440;9.178;2022-12-15T06:53:29;6.30;99.90
32400;DHT22;45045;45.440;9.178;2022-12-15T06:56:00;6.30;99.90
32400;DHT22;45045;45.440;9.178;2022-12-15T06:58:26;6.30;99.90
32400;DHT22;45045;45.440;9.178;2022-12-15T07:00:52;6.30;99.90
32400;DHT22;45045;45.440;9.178;2022-12-15T07:03:19;6.30;99.90
32400;DHT22;45045;45.440;9.178;2022-12-15T07:05:45;6.40;99.90
32400;DHT22;45045;45.440;9.178;2022-12-15T07:08:14;6.50;99.90
32400;DHT22;45045;45.440;9.178;2022-12-15T07:10:42;6.50;99.90
32400;DHT22;45045;45.440;9.178;2022-12-15T07:13:11;6.60;99.90
32400;DHT22;45045;45.440;9.178;2022-12-15T07:15:38;6.60;99.90
32400;DHT22;45045;45.440;9.178;2022-12-15T07:18:04;6.70;99.90
32400;DHT22;45045;45.440;9.178;2022-12-15T07:20:30;6.50;99.90
32400;DHT22;45045;45.440;9.178;2022-12-15T07:22:55;6.50;99.90
32400;DHT22;45045;45.440;9.178;2022-12-15T07:25:21;6.50;99.90
32400;DHT22;45045;45.440;9.178;2022-12-15T07:27:47;6.60;99.90
32400;DHT22;45045;45.440;9.178;2022-12-15T07:30:14;6.70;99.90
32400;DHT22;45045;45.440;9.178;2022-12-15T07:32:41;6.70;99.90
32400;DHT22;45045;45.440;9.178;2022-12-15T07:35:07;6.70;99.90
32400;DHT22;45045;45.440;9.178;2022-12-15T07:37:33;6.70;99.90
32400;DHT22;45045;45.440;9.178;2022-12-15T07:39:59;6.60;99.90
32400;DHT22;45045;45.440;9.178;2022-12-15T07:42:28;6.60;99.90
32400;DHT22;45045;45.440;9.178;2022-12-15T07:44:54;6.60;99.90
32400;DHT22;45045;45.440;9.178;2022-12-15T07:47:19;7.60;99.90
32400;DHT22;45045;45.440;9.178;2022-12-15T07:49:45;8.30;99.90
32400;DHT22;45045;45.440;9.178;2022-12-15T07:52:11;8.90;99.90
32400;DHT22;45045;45.440;9.178;2022-12-15T07:54:39;9.50;99.90
32400;DHT22;45045;45.440;9.178;2022-12-15T07:57:05;9.50;99.90
32400;DHT22;45045;45.440;9.178;2022-12-15T07:59:32;9.40;99.90
32400;DHT22;45045;45.440;9.178;2022-12-15T08:01:58;9.80;99.90
32400;DHT22;45045;45.440;9.178;2022-12-15T08:04:25;10.20;99.90
32400;DHT22;45045;45.440;9.178;2022-12-15T08:06:53;10.50;99.90
32400;DHT22;45045;45.440;9.178;2022-12-15T08:09:18;10.70;99.90
32400;DHT22;45045;45.440;9.178;2022-12-15T08:11:44;11.10;99.90
32400;DHT22;45045;45.440;9.178;2022-12-15T08:14:10;11.20;99.90
32400;DHT22;45045;45.440;9.178;2022-12-15T08:16:36;11.30;99.90
32400;DHT22;45045;45.440;9.178;2022-12-15T08:19:05;11.50;99.90
32400;DHT22;45045;45.440;9.178;2022-12-15T08:21:32;11.60;99.90
32400;DHT22;45045;45.440;9.178;2022-12-15T08:23:58;11.70;99.90
32400;DHT22;45045;45.440;9.178;2022-12-15T08:26:26;12.00;99.90
32400;DHT22;45045;45.440;9.178;2022-12-15T08:28:52;12.30;99.90
32400;DHT22;45045;45.440;9.178;2022-12-15T08:31:20;12.00;99.90
32400;DHT22;45045;45.440;9.178;2022-12-15T08:33:46;11.90;99.90
32400;DHT22;45045;45.440;9.178;2022-12-15T08:36:14;11.20;99.90
32400;DHT22;45045;45.440;9.178;2022-12-15T08:38:41;11.30;99.90
32400;DHT22;45045;45.440;9.178;2022-12-15T08:41:12;11.50;99.90
32400;DHT22;45045;45.440;9.178;2022-12-15T08:43:38;11.50;99.90
32400;DHT22;45045;45.440;9.178;2022-12-15T08:46:05;10.50;97.90
32400;DHT22;45045;45.440;9.178;2022-12-15T08:48:31;10.50;99.90
32400;DHT22;45045;45.440;9.178;2022-12-15T08:50:57;10.70;99.90
32400;DHT22;45045;45.440;9.178;2022-12-15T08:53:24;10.90;99.90
32400;DHT22;45045;45.440;9.178;2022-12-15T08:55:49;10.70;99.90
32400;DHT22;45045;45.440;9.178;2022-12-15T08:58:15;10.10;99.70
32400;DHT22;45045;45.440;9.178;2022-12-15T09:00:41;10.00;99.90
32400;DHT22;45045;45.440;9.178;2022-12-15T09:03:06;10.50;99.90
32400;DHT22;45045;45.440;9.178;2022-12-15T09:05:36;10.70;99.90
32400;DHT22;45045;45.440;9.178;2022-12-15T09:08:01;10.00;98.80
32400;DHT22;45045;45.440;9.178;2022-12-15T09:10:27;9.70;99.90
32400;DHT22;45045;45.440;9.178;2022-12-15T09:12:53;10.20;99.90
32400;DHT22;45045;45.440;9.178;2022-12-15T09:15:18;10.80;99.90
32400;DHT22;45045;45.440;9.178;2022-12-15T09:17:45;11.40;99.90
32400;DHT22;45045;45.440;9.178;2022-12-15T09:20:12;11.80;99.90
32400;DHT22;45045;45.440;9.178;2022-12-15T09:22:39;12.10;99.90
32400;DHT22;45045;45.440;9.178;2022-12-15T09:25:05;12.30;99.90
32400;DHT22;45045;45.440;9.178;2022-12-15T09:27:31;11.60;96.00
32400;DHT22;45045;45.440;9.178;2022-12-15T09:29:58;10.60;98.90
32400;DHT22;45045;45.440;9.178;2022-12-15T09:32:24;10.20;98.50
32400;DHT22;45045;45.440;9.178;2022-12-15T09:34:50;9.90;98.80
32400;DHT22;45045;45.440;9.178;2022-12-15T09:37:16;9.90;99.90
32400;DHT22;45045;45.440;9.178;2022-12-15T09:39:41;9.60;98.90
32400;DHT22;45045;45.440;9.178;2022-12-15T09:42:26;9.20;99.70
32400;DHT22;45045;45.440;9.178;2022-12-15T09:47:42;8.70;99.90
32400;DHT22;45045;45.440;9.178;2022-12-15T09:50:11;8.40;99.90
32400;DHT22;45045;45.440;9.178;2022-12-15T09:55:22;8.20;99.90
32400;DHT22;45045;45.440;9.178;2022-12-15T09:57:58;8.20;99.90
32400;DHT22;45045;45.440;9.178;2022-12-15T10:08:38;8.00;99.90
32400;DHT22;45045;45.440;9.178;2022-12-15T10:11:35;8.00;99.90
32400;DHT22;45045;45.440;9.178;2022-12-15T10:14:20;8.00;99.90
32400;DHT22;45045;45.440;9.178;2022-12-15T10:16:52;8.00;99.90
32400;DHT22;45045;45.440;9.178;2022-12-15T10:19:44;8.00;99.90
32400;DHT22;45045;45.440;9.178;2022-12-15T10:22:20;8.10;99.90
32400;DHT22;45045;45.440;9.178;2022-12-15T10:24:48;8.00;99.90
32400;DHT22;45045;45.440;9.178;2022-12-15T10:30:14;8.00;99.90
32400;DHT22;45045;45.440;9.178;2022-12-15T10:35:17;7.90;99.90
32400;DHT22;45045;45.440;9.178;2022-12-15T10:37:42;7.90;99.90
32400;DHT22;45045;45.440;9.178;2022-12-15T10:40:13;7.90;99.90
32400;DHT22;45045;45.440;9.178;2022-12-15T10:42:49;8.00;99.90
32400;DHT22;45045;45.440;9.178;2022-12-15T10:45:34;8.00;99.90
32400;DHT22;45045;45.440;9.178;2022-12-15T10:48:02;7.90;99.90
32400;DHT22;45045;45.440;9.178;2022-12-15T10:50:31;7.90;99.90
32400;DHT22;45045;45.440;9.178;2022-12-15T10:52:58;7.90;99.90
32400;DHT22;45045;45.440;9.178;2022-12-15T10:55:30;7.90;99.90
32400;DHT22;45045;45.440;9.178;2022-12-15T10:57:58;7.90;99.90
32400;DHT22;45045;45.440;9.178;2022-12-15T11:00:27;7.90;99.90
32400;DHT22;45045;45.440;9.178;2022-12-15T11:02:54;8.00;99.90
32400;DHT22;45045;45.440;9.178;2022-12-15T11:05:20;7.90;99.90
32400;DHT22;45045;45.440;9.178;2022-12-15T11:10:34;7.90;99.90
32400;DHT22;45045;45.440;9.178;2022-12-15T11:13:21;8.00;99.90
32400;DHT22;45045;45.440;9.178;2022-12-15T11:15:48;8.00;99.90
32400;DHT22;45045;45.440;9.178;2022-12-15T11:21:34;8.00;99.90
32400;DHT22;45045;45.440;9.178;2022-12-15T11:26:43;8.00;99.90
32400;DHT22;45045;45.440;9.178;2022-12-15T11:32:17;8.10;99.90
32400;DHT22;45045;45.440;9.178;2022-12-15T11:34:45;8.00;99.90
32400;DHT22;45045;45.440;9.178;2022-12-15T11:46:25;8.10;99.90
32400;DHT22;45045;45.440;9.178;2022-12-15T11:56:30;8.00;99.90
32400;DHT22;45045;45.440;9.178;2022-12-15T11:59:18;8.00;99.90
32400;DHT22;45045;45.440;9.178;2022-12-15T12:07:59;8.00;99.90
32400;DHT22;45045;45.440;9.178;2022-12-15T12:18:50;7.90;99.90
32400;DHT22;45045;45.440;9.178;2022-12-15T12:21:25;8.00;99.90
32400;DHT22;45045;45.440;9.178;2022-12-15T12:24:12;7.90;99.90
32400;DHT22;45045;45.440;9.178;2022-12-15T12:29:44;8.00;99.90
32400;DHT22;45045;45.440;9.178;2022-12-15T12:38:01;8.00;99.90
32400;DHT22;45045;45.440;9.178;2022-12-15T12:43:09;8.00;99.90
32400;DHT22;45045;45.440;9.178;2022-12-15T12:45:46;8.00;99.90
32400;DHT22;45045;45.440;9.178;2022-12-15T12:48:37;8.00;99.90
32400;DHT22;45045;45.440;9.178;2022-12-15T12:51:11;8.00;99.90
32400;DHT22;45045;45.440;9.178;2022-12-15T12:53:37;7.90;99.90
32400;DHT22;45045;45.440;9.178;2022-12-15T12:56:02;7.90;99.90
32400;DHT22;45045;45.440;9.178;2022-12-15T13:01:16;7.80;99.90
32400;DHT22;45045;45.440;9.178;2022-12-15T13:03:42;7.80;99.90
32400;DHT22;45045;45.440;9.178;2022-12-15T13:09:22;8.60;99.90
32400;DHT22;45045;45.440;9.178;2022-12-15T13:20:04;11.30;99.90
32400;DHT22;45045;45.440;9.178;2022-12-15T13:22:36;10.00;99.90
32400;DHT22;45045;45.440;9.178;2022-12-15T13:27:52;8.70;99.90
32400;DHT22;45045;45.440;9.178;2022-12-15T13:30:18;8.50;99.90
32400;DHT22;45045;45.440;9.178;2022-12-15T13:32:53;8.40;99.90
32400;DHT22;45045;45.440;9.178;2022-12-15T13:35:30;8.20;99.90
32400;DHT22;45045;45.440;9.178;2022-12-15T13:37:59;8.20;99.90
32400;DHT22;45045;45.440;9.178;2022-12-15T13:45:47;9.80;99.90
32400;DHT22;45045;45.440;9.178;2022-12-15T13:48:39;10.80;99.90
32400;DHT22;45045;45.440;9.178;2022-12-15T13:51:26;11.50;99.90
32400;DHT22;45045;45.440;9.178;2022-12-15T13:54:16;11.90;99.90
32400;DHT22;45045;45.440;9.178;2022-12-15T13:56:54;12.20;99.90
32400;DHT22;45045;45.440;9.178;2022-12-15T14:01:54;12.10;99.90
32400;DHT22;45045;45.440;9.178;2022-12-15T14:04:20;11.70;99.90
32400;DHT22;45045;45.440;9.178;2022-12-15T14:06:52;11.20;99.90
32400;DHT22;45045;45.440;9.178;2022-12-15T14:09:30;10.40;99.90
32400;DHT22;45045;45.440;9.178;2022-12-15T14:11:57;10.00;99.90
32400;DHT22;45045;45.440;9.178;2022-12-15T14:14:28;9.20;99.90
32400;DHT22;45045;45.440;9.178;2022-12-15T14:16:57;8.70;99.90
32400;DHT22;45045;45.440;9.178;2022-12-15T14:19:23;8.50;99.90
32400;DHT22;45045;45.440;9.178;2022-12-15T14:21:50;8.30;99.90
32400;DHT22;45045;45.440;9.178;2022-12-15T14:24:26;8.20;99.90
32400;DHT22;45045;45.440;9.178;2022-12-15T14:26:52;8.10;99.90
32400;DHT22;45045;45.440;9.178;2022-12-15T14:29:19;8.20;99.90
32400;DHT22;45045;45.440;9.178;2022-12-15T14:31:55;8.10;99.90
32400;DHT22;45045;45.440;9.178;2022-12-15T14:34:39;8.00;99.90
32400;DHT22;45045;45.440;9.178;2022-12-15T14:37:17;8.00;99.90
32400;DHT22;45045;45.440;9.178;2022-12-15T14:39:46;7.90;99.90
32400;DHT22;45045;45.440;9.178;2022-12-15T14:42:22;7.90;99.90
32400;DHT22;45045;45.440;9.178;2022-12-15T14:44:49;7.90;99.90
32400;DHT22;45045;45.440;9.178;2022-12-15T14:47:22;7.90;99.90
32400;DHT22;45045;45.440;9.178;2022-12-15T14:49:53;7.90;99.90
32400;DHT22;45045;45.440;9.178;2022-12-15T14:52:25;8.60;99.90
32400;DHT22;45045;45.440;9.178;2022-12-15T14:54:57;9.90;99.90
32400;DHT22;45045;45.440;9.178;2022-12-15T14:57:26;9.50;99.90
32400;DHT22;45045;45.440;9.178;2022-12-15T14:59:52;8.90;99.90
32400;DHT22;45045;45.440;9.178;2022-12-15T15:04:58;8.20;99.90
32400;DHT22;45045;45.440;9.178;2022-12-15T15:07:25;8.10;99.90
32400;DHT22;45045;45.440;9.178;2022-12-15T15:09:53;8.00;99.90
32400;DHT22;45045;45.440;9.178;2022-12-15T15:12:43;7.90;99.90
32400;DHT22;45045;45.440;9.178;2022-12-15T15:15:18;7.90;99.90
32400;DHT22;45045;45.440;9.178;2022-12-15T15:17:56;7.90;99.90
32400;DHT22;45045;45.440;9.178;2022-12-15T15:20:30;7.80;99.90
32400;DHT22;45045;45.440;9.178;2022-12-15T15:23:14;7.80;99.90
32400;DHT22;45045;45.440;9.178;2022-12-15T15:26:07;7.80;99.90
32400;DHT22;45045;45.440;9.178;2022-12-15T15:28:39;7.70;99.90
32400;DHT22;45045;45.440;9.178;2022-12-15T15:31:25;7.80;99.90
32400;DHT22;45045;45.440;9.178;2022-12-15T15:33:53;7.80;99.90
32400;DHT22;45045;45.440;9.178;2022-12-15T15:36:31;7.70;99.90
32400;DHT22;45045;45.440;9.178;2022-12-15T15:38:57;7.70;99.90
32400;DHT22;45045;45.440;9.178;2022-12-15T15:41:27;7.70;99.90
32400;DHT22;45045;45.440;9.178;2022-12-15T15:43:54;7.80;99.90
32400;DHT22;45045;45.440;9.178;2022-12-15T15:46:22;7.70;99.90
32400;DHT22;45045;45.440;9.178;2022-12-15T15:48:55;7.70;99.90
32400;DHT22;45045;45.440;9.178;2022-12-15T15:51:23;7.70;99.90
32400;DHT22;45045;45.440;9.178;2022-12-15T15:53:50;7.70;99.90
32400;DHT22;45045;45.440;9.178;2022-12-15T15:56:18;7.70;99.90
32400;DHT22;45045;45.440;9.178;2022-12-15T15:58:44;7.70;99.90
32400;DHT22;45045;45.440;9.178;2022-12-15T16:01:11;7.60;99.90
32400;DHT22;45045;45.440;9.178;2022-12-15T16:03:37;7.70;99.90
32400;DHT22;45045;45.440;9.178;2022-12-15T16:06:04;7.70;99.90
32400;DHT22;45045;45.440;9.178;2022-12-15T16:08:33;7.70;99.90
32400;DHT22;45045;45.440;9.178;2022-12-15T16:11:00;7.70;99.90
32400;DHT22;45045;45.440;9.178;2022-12-15T16:13:26;7.70;99.90
32400;DHT22;45045;45.440;9.178;2022-12-15T16:15:52;7.70;99.90
32400;DHT22;45045;45.440;9.178;2022-12-15T16:18:18;7.70;99.90
32400;DHT22;45045;45.440;9.178;2022-12-15T16:20:47;7.80;99.90
32400;DHT22;45045;45.440;9.178;2022-12-15T16:23:21;8.00;99.90
32400;DHT22;45045;45.440;9.178;2022-12-15T16:25:52;8.40;99.90
32400;DHT22;45045;45.440;9.178;2022-12-15T16:28:20;8.90;99.90
32400;DHT22;45045;45.440;9.178;2022-12-15T16:30:47;8.80;99.90
32400;DHT22;45045;45.440;9.178;2022-12-15T16:33:13;9.20;99.90
32400;DHT22;45045;45.440;9.178;2022-12-15T16:35:40;10.30;99.90
32400;DHT22;45045;45.440;9.178;2022-12-15T16:38:13;9.70;99.90
32400;DHT22;45045;45.440;9.178;2022-12-15T16:40:40;9.10;99.90
32400;DHT22;45045;45.440;9.178;2022-12-15T16:43:16;8.60;99.90
32400;DHT22;45045;45.440;9.178;2022-12-15T16:45:43;8.20;99.90
32400;DHT22;45045;45.440;9.178;2022-12-15T16:48:10;8.00;99.90
32400;DHT22;45045;45.440;9.178;2022-12-15T16:50:37;7.80;99.90
32400;DHT22;45045;45.440;9.178;2022-12-15T16:53:03;7.80;99.90
32400;DHT22;45045;45.440;9.178;2022-12-15T16:55:31;7.70;99.90
32400;DHT22;45045;45.440;9.178;2022-12-15T16:58:03;7.70;99.90
32400;DHT22;45045;45.440;9.178;2022-12-15T17:00:32;7.60;99.90
32400;DHT22;45045;45.440;9.178;2022-12-15T17:02:59;7.60;99.90
32400;DHT22;45045;45.440;9.178;2022-12-15T17:05:28;7.60;99.90
32400;DHT22;45045;45.440;9.178;2022-12-15T17:07:56;7.60;99.90
32400;DHT22;45045;45.440;9.178;2022-12-15T17:10:25;7.60;99.90
32400;DHT22;45045;45.440;9.178;2022-12-15T17:12:53;7.60;99.90
32400;DHT22;45045;45.440;9.178;2022-12-15T17:15:25;7.60;99.90
32400;DHT22;45045;45.440;9.178;2022-12-15T17:17:52;7.60;99.90
32400;DHT22;45045;45.440;9.178;2022-12-15T17:20:25;7.70;99.90
32400;DHT22;45045;45.440;9.178;2022-12-15T17:22:54;7.60;99.90
32400;DHT22;45045;45.440;9.178;2022-12-15T17:25:22;7.60;99.90
32400;DHT22;45045;45.440;9.178;2022-12-15T17:27:51;7.50;99.90
32400;DHT22;45045;45.440;9.178;2022-12-15T17:30:18;7.50;99.90
32400;DHT22;45045;45.440;9.178;2022-12-15T17:32:44;7.50;99.90
32400;DHT22;45045;45.440;9.178;2022-12-15T17:35:11;7.50;99.90
32400;DHT22;45045;45.440;9.178;2022-12-15T17:37:37;7.40;99.90
32400;DHT22;45045;45.440;9.178;2022-12-15T17:40:16;7.30;99.90
32400;DHT22;45045;45.440;9.178;2022-12-15T17:42:42;7.30;99.90
32400;DHT22;45045;45.440;9.178;2022-12-15T17:45:20;7.30;99.90
32400;DHT22;45045;45.440;9.178;2022-12-15T17:47:46;7.30;99.90
32400;DHT22;45045;45.440;9.178;2022-12-15T17:50:12;8.40;99.90
32400;DHT22;45045;45.440;9.178;2022-12-15T17:52:38;9.80;99.90
32400;DHT22;45045;45.440;9.178;2022-12-15T17:55:18;10.60;99.90
32400;DHT22;45045;45.440;9.178;2022-12-15T17:57:44;10.40;99.90
32400;DHT22;45045;45.440;9.178;2022-12-15T18:00:29;9.40;99.90
32400;DHT22;45045;45.440;9.178;2022-12-15T18:02:57;8.70;99.90
32400;DHT22;45045;45.440;9.178;2022-12-15T18:05:28;8.10;99.90
32400;DHT22;45045;45.440;9.178;2022-12-15T18:08:00;7.90;99.90
32400;DHT22;45045;45.440;9.178;2022-12-15T18:10:38;7.70;99.90
32400;DHT22;45045;45.440;9.178;2022-12-15T18:13:22;8.80;99.90
32400;DHT22;45045;45.440;9.178;2022-12-15T18:15:48;10.10;99.90
32400;DHT22;45045;45.440;9.178;2022-12-15T18:18:16;10.90;99.90